Time;durP1;ratioP1;P1;durP2;ratioP2;P2;SDS_P1;SDS_P2;PMS_P1;PMS_P2;Temp;Humidity;BMP_temperature;BMP_pressure;BME280_temperature;BME280_humidity;BME280_pressure;Samples;Min_cycle;Max_cycle;Signal;HPM_P1;HPM_P2
2022/03/20 00:00:34;;;;;;;;;;;;;;;-1.11;45.93;102095.34;3141546;28;19934;-71
2022/03/20 00:02:06;;;;;;;;;;;;;;;-1.12;46.12;102089.38;3140836;28;19928;-72
2022/03/20 00:03:39;;;;;;;;;;;;;;;-1.12;45.83;102091.03;3140703;28;20027;-72
2022/03/20 00:05:10;;;;;;;;;;;;;;;-1.15;46.11;102090.13;3141169;28;20411;-71
2022/03/20 00:06:42;;;;;;;;;;;;;;;-1.16;45.98;102083.25;3140765;28;19944;-72
2022/03/20 00:08:13;;;;;;;;;;;;;;;-1.16;45.86;102085.78;3140941;28;19924;-72
2022/03/20 00:09:46;;;;;;;;;;;;;;;-1.16;46.13;102088.34;3136444;28;19981;-72
2022/03/20 00:11:18;;;;;;;;;;;;;;;-1.17;46.05;102088.31;3141329;28;19943;-72
2022/03/20 00:12:50;;;;;;;;;;;;;;;-1.18;46.23;102081.47;3140734;28;19929;-72
2022/03/20 00:14:21;;;;;;;;;;;;;;;-1.19;46.21;102084.81;3141292;28;19927;-72
2022/03/20 00:15:54;;;;;;;;;;;;;;;-1.19;46.19;102082.25;3140408;28;19925;-72
2022/03/20 00:17:25;;;;;;;;;;;;;;;-1.22;46.28;102079.56;3140697;28;19928;-72
2022/03/20 00:18:59;;;;;;;;;;;;;;;-1.22;46.49;102082.13;3140412;28;19946;-72
2022/03/20 00:20:33;;;;;;;;;;;;;;;-1.23;46.44;102075.28;3141443;28;19931;-70
2022/03/20 00:22:05;;;;;;;;;;;;;;;-1.25;46.26;102075.22;3139667;28;19928;-70
2022/03/20 00:23:37;;;;;;;;;;;;;;;-1.27;46.24;102076.84;3133791;28;19924;-70
2022/03/20 00:25:08;;;;;;;;;;;;;;;-1.27;46.44;102065.72;3136800;28;19924;-71
2022/03/20 00:26:41;;;;;;;;;;;;;;;-1.27;46.32;102073.41;3132634;28;19925;-70
2022/03/20 00:28:14;;;;;;;;;;;;;;;-1.29;46.46;102073.34;3140371;28;19977;-70
2022/03/20 00:29:46;;;;;;;;;;;;;;;-1.29;46.38;102069.94;3140403;28;19930;-70
2022/03/20 00:31:17;;;;;;;;;;;;;;;-1.31;46.65;102062.19;3140866;28;19985;-70
2022/03/20 00:32:49;;;;;;;;;;;;;;;-1.33;46.54;102066.38;3140399;28;19924;-70
2022/03/20 00:34:22;;;;;;;;;;;;;;;-1.33;46.49;102057.81;3134699;28;19924;-70
2022/03/20 00:35:54;;;;;;;;;;;;;;;-1.34;46.58;102061.19;3131184;28;19928;-70
2022/03/20 00:37:26;;;;;;;;;;;;;;;-1.35;46.75;102059.47;3136473;28;19975;-71
2022/03/20 00:38:57;;;;;;;;;;;;;;;-1.38;46.96;102062.78;3140801;28;20007;-70
2022/03/20 00:40:29;;;;;;;;;;;;;;;-1.38;46.89;102065.31;3140379;28;20415;-70
2022/03/20 00:42:01;;;;;;;;;;;;;;;-1.41;46.94;102058.41;3139951;28;19924;-70
2022/03/20 00:43:33;;;;;;;;;;;;;;;-1.41;46.85;102060.09;3140366;28;19924;-70
2022/03/20 00:45:05;;;;;;;;;;;;;;;-1.43;47.01;102054.91;3140780;28;19928;-72
2022/03/20 00:46:37;;;;;;;;;;;;;;;-1.44;46.89;102052.31;3140231;28;19986;-69
2022/03/20 00:48:09;;;;;;;;;;;;;;;-1.45;47.24;102047.97;3140311;28;20034;-69
2022/03/20 00:49:42;;;;;;;;;;;;;;;-1.46;47.12;102046.25;3140492;28;19924;-69
2022/03/20 00:51:13;;;;;;;;;;;;;;;-1.48;47.24;102050.41;3140259;28;20420;-69
2022/03/20 00:52:44;;;;;;;;;;;;;;;-1.50;47.34;102050.38;3140787;28;19928;-70
2022/03/20 00:54:16;;;;;;;;;;;;;;;-1.51;47.43;102052.84;3140022;28;20388;-71
2022/03/20 00:55:47;;;;;;;;;;;;;;;-1.52;47.53;102056.22;3133008;28;19925;-70
2022/03/20 00:57:20;;;;;;;;;;;;;;;-1.54;47.57;102050.19;3132725;28;19930;-71
2022/03/20 00:58:51;;;;;;;;;;;;;;;-1.55;47.48;102056.97;3134306;28;19925;-70
2022/03/20 01:00:23;;;;;;;;;;;;;;;-1.56;47.70;102049.25;3140060;28;19928;-70
2022/03/20 01:01:55;;;;;;;;;;;;;;;-1.58;47.62;102050.88;3144086;28;20016;-71
2022/03/20 01:03:27;;;;;;;;;;;;;;;-1.59;47.86;102050.00;3139102;28;20027;-71
2022/03/20 01:05:00;;;;;;;;;;;;;;;-1.60;47.85;102050.78;3133730;28;20009;-71
2022/03/20 01:06:31;;;;;;;;;;;;;;;-1.61;47.95;102054.19;3140208;28;19924;-71
2022/03/20 01:08:03;;;;;;;;;;;;;;;-1.62;48.04;102053.31;3133850;28;19924;-71
2022/03/20 01:09:35;;;;;;;;;;;;;;;-1.63;48.17;102054.13;3128227;28;19929;-71
2022/03/20 01:11:07;;;;;;;;;;;;;;;-1.65;48.24;102055.75;3140276;28;19923;-71
2022/03/20 01:12:39;;;;;;;;;;;;;;;-1.66;48.21;102061.63;3131848;28;19999;-70
2022/03/20 01:14:12;;;;;;;;;;;;;;;-1.67;48.22;102051.38;3139673;28;19924;-71
2022/03/20 01:15:43;;;;;;;;;;;;;;;-1.69;48.28;102060.66;3140202;28;20360;-72
2022/03/20 01:17:15;;;;;;;;;;;;;;;-1.71;48.43;102055.50;3139741;28;19929;-73
2022/03/20 01:18:47;;;;;;;;;;;;;;;-1.72;48.52;102060.53;3136440;28;19924;-72
2022/03/20 01:20:20;;;;;;;;;;;;;;;-1.73;48.62;102059.66;3139942;28;19928;-72
2022/03/20 01:21:52;;;;;;;;;;;;;;;-1.74;48.58;102062.16;3139504;28;19931;-72
2022/03/20 01:23:24;;;;;;;;;;;;;;;-1.76;48.85;102056.09;3139981;28;19928;-70
2022/03/20 01:24:55;;;;;;;;;;;;;;;-1.78;48.84;102056.03;3140492;28;19929;-70
2022/03/20 01:26:26;;;;;;;;;;;;;;;-1.79;49.11;102059.41;3138619;28;19966;-69
2022/03/20 01:27:58;;;;;;;;;;;;;;;-1.81;49.12;102066.13;3139552;28;20046;-70
2022/03/20 01:29:30;;;;;;;;;;;;;;;-1.84;49.28;102056.66;3140129;28;19924;-70
2022/03/20 01:31:02;;;;;;;;;;;;;;;-1.86;49.45;102052.31;3134122;28;20231;-70
2022/03/20 01:32:34;;;;;;;;;;;;;;;-1.89;49.55;102053.06;3145648;28;20297;-70
2022/03/20 01:34:05;;;;;;;;;;;;;;;-1.91;49.59;102049.56;3129817;28;19932;-69
2022/03/20 01:35:38;;;;;;;;;;;;;;;-1.93;49.74;102043.50;3142780;28;19967;-70
2022/03/20 01:37:10;;;;;;;;;;;;;;;-1.94;49.83;102040.91;3132404;28;20427;-70
2022/03/20 01:38:42;;;;;;;;;;;;;;;-1.97;49.90;102033.13;3139380;28;19924;-70
2022/03/20 01:40:14;;;;;;;;;;;;;;;-1.99;49.99;102039.81;3139725;28;19993;-70
2022/03/20 01:41:47;;;;;;;;;;;;;;;-2.03;50.16;102038.81;3140317;28;20413;-70
2022/03/20 01:43:18;;;;;;;;;;;;;;;-2.05;50.33;102043.00;3141686;28;20369;-70
2022/03/20 01:44:50;;;;;;;;;;;;;;;-2.07;50.37;102042.94;3144527;28;20520;-70
2022/03/20 01:46:22;;;;;;;;;;;;;;;-2.09;50.40;102044.53;3143507;28;19921;-70
2022/03/20 01:47:54;;;;;;;;;;;;;;;-2.11;50.57;102035.94;3137108;28;20448;-70
2022/03/20 01:49:26;;;;;;;;;;;;;;;-2.13;50.59;102042.69;3145254;28;19924;-70
2022/03/20 01:50:59;;;;;;;;;;;;;;;-2.15;50.86;102048.53;3137850;28;19928;-70
2022/03/20 01:52:29;;;;;;;;;;;;;;;-2.18;50.98;102043.28;3145467;28;19970;-69
2022/03/20 01:54:01;;;;;;;;;;;;;;;-2.20;50.99;102047.44;3144780;28;19920;-70
2022/03/20 01:55:33;;;;;;;;;;;;;;;-2.23;50.91;102039.66;3143157;28;19920;-70
2022/03/20 01:57:03;;;;;;;;;;;;;;;-2.25;51.04;102044.69;3134128;28;19947;-69
2022/03/20 01:58:35;;;;;;;;;;;;;;;-2.27;51.15;102041.22;3140642;28;19927;-69
2022/03/20 02:00:07;;;;;;;;;;;;;;;-2.28;51.31;102044.56;3136856;28;19924;-70
2022/03/20 02:01:39;;;;;;;;;;;;;;;-2.29;51.28;102045.38;3141100;28;20413;-69
2022/03/20 02:03:11;;;;;;;;;;;;;;;-2.31;51.51;102046.97;3145365;28;19928;-69
2022/03/20 02:04:42;;;;;;;;;;;;;;;-2.34;51.41;102042.63;3135630;28;19921;-70
2022/03/20 02:06:15;;;;;;;;;;;;;;;-2.35;51.35;102045.97;3138832;28;19988;-71
2022/03/20 02:07:47;;;;;;;;;;;;;;;-2.37;51.54;102045.03;3144035;28;20393;-71
2022/03/20 02:09:18;;;;;;;;;;;;;;;-2.39;51.48;102048.34;3145077;28;19923;-71
2022/03/20 02:10:50;;;;;;;;;;;;;;;-2.39;51.62;102048.34;3144828;28;19920;-71
2022/03/20 02:12:22;;;;;;;;;;;;;;;-2.42;51.73;102041.44;3144838;28;19985;-71
2022/03/20 02:13:54;;;;;;;;;;;;;;;-2.42;51.84;102048.22;3142079;28;19921;-71
2022/03/20 02:15:26;;;;;;;;;;;;;;;-2.44;51.78;102053.22;3143872;28;19924;-71
2022/03/20 02:16:58;;;;;;;;;;;;;;;-2.45;51.82;102053.19;3145427;28;19920;-71
2022/03/20 02:18:30;;;;;;;;;;;;;;;-2.46;52.08;102059.94;3144349;28;19932;-71
2022/03/20 02:20:04;;;;;;;;;;;;;;;-2.47;51.88;102054.78;3145508;28;20007;-71
2022/03/20 02:21:39;;;;;;;;;;;;;;;-2.48;52.10;102053.03;3143027;28;20316;-71
2022/03/20 02:23:10;;;;;;;;;;;;;;;-2.50;52.11;102050.41;3144971;28;19925;-70
2022/03/20 02:24:44;;;;;;;;;;;;;;;-2.50;52.11;102047.00;3144518;28;20321;-70
2022/03/20 02:26:25;;;;;;;;;;;;;;;-2.52;52.36;102049.47;3144099;28;20011;-74
2022/03/20 02:27:56;;;;;;;;;;;;;;;-2.53;52.49;102045.19;3143161;28;20386;-69
2022/03/20 02:29:27;;;;;;;;;;;;;;;-2.54;52.31;102044.31;3145181;28;20455;-73
2022/03/20 02:30:59;;;;;;;;;;;;;;;-2.53;52.37;102047.72;3144193;28;19924;-72
2022/03/20 02:32:31;;;;;;;;;;;;;;;-2.54;52.69;102057.06;3141148;28;19920;-73
2022/03/20 02:34:03;;;;;;;;;;;;;;;-2.55;52.57;102042.53;3145514;28;19925;-73
2022/03/20 02:35:34;;;;;;;;;;;;;;;-2.55;52.73;102041.69;3138757;28;19935;-73
2022/03/20 02:37:06;;;;;;;;;;;;;;;-2.56;52.80;102034.84;3144840;28;19929;-72
2022/03/20 02:38:38;;;;;;;;;;;;;;;-2.56;52.70;102038.25;3144363;28;19964;-73
2022/03/20 02:40:11;;;;;;;;;;;;;;;-2.56;52.81;102043.38;3144995;28;19982;-74
2022/03/20 02:41:44;;;;;;;;;;;;;;;-2.56;52.76;102039.94;3144614;28;19966;-74
2022/03/20 02:43:17;;;;;;;;;;;;;;;-2.57;52.82;102041.63;3140103;28;19997;-74
2022/03/20 02:44:48;;;;;;;;;;;;;;;-2.57;52.99;102041.63;3144348;28;19924;-74
2022/03/20 02:46:20;;;;;;;;;;;;;;;-2.56;52.95;102050.16;3144851;28;19979;-74
2022/03/20 02:47:52;;;;;;;;;;;;;;;-2.56;52.89;102052.69;3141129;28;20359;-73
2022/03/20 02:49:24;;;;;;;;;;;;;;;-2.56;53.06;102042.50;3141221;28;20439;-74
2022/03/20 02:50:55;;;;;;;;;;;;;;;-2.56;53.19;102040.81;3144709;28;19920;-74
2022/03/20 02:52:29;;;;;;;;;;;;;;;-2.57;53.01;102044.19;3144571;28;19924;-73
2022/03/20 02:54:00;;;;;;;;;;;;;;;-2.76;52.99;102006.75;3149642;28;19919;-73
2022/03/20 02:55:33;;;;;;;;;;;;;;;-2.57;53.18;102040.75;3144405;28;19920;-73
2022/03/20 02:57:04;;;;;;;;;;;;;;;-2.58;53.11;102042.41;3140561;28;19924;-72
2022/03/20 02:58:36;;;;;;;;;;;;;;;-2.60;53.24;102036.41;3138453;28;20397;-73
2022/03/20 03:00:07;;;;;;;;;;;;;;;-2.60;53.22;102049.16;3145450;28;19924;-73
2022/03/20 03:01:39;;;;;;;;;;;;;;;-2.59;53.35;102039.81;3145604;28;20321;-72
2022/03/20 03:03:11;;;;;;;;;;;;;;;-2.60;53.16;102049.16;3144647;28;19932;-72
2022/03/20 03:04:43;;;;;;;;;;;;;;;-2.60;53.12;102049.16;3144774;28;19967;-73
2022/03/20 03:06:15;;;;;;;;;;;;;;;-2.59;53.06;102050.00;3140965;28;19924;-73
2022/03/20 03:11:26;;;;;;;;;;;;;;;-2.61;52.86;102042.28;3139379;28;19920;-73
2022/03/20 03:12:57;;;;;;;;;;;;;;;-2.61;52.75;102033.75;3143727;28;20632;-73
2022/03/20 03:16:17;;;;;;;;;;;;;;;-2.62;52.69;102034.56;3144307;28;19921;-74
2022/03/20 03:17:49;;;;;;;;;;;;;;;-2.62;52.63;102043.09;3145091;28;19985;-73
2022/03/20 03:19:21;;;;;;;;;;;;;;;-2.61;52.63;102041.41;3136990;28;19928;-73
2022/03/20 03:20:53;;;;;;;;;;;;;;;-2.60;52.43;102035.53;3145138;28;19978;-73
2022/03/20 03:22:24;;;;;;;;;;;;;;;-2.61;52.27;102038.84;3146091;28;20033;-72
2022/03/20 03:23:58;;;;;;;;;;;;;;;-2.60;52.17;102038.94;3146902;28;20317;-72
2022/03/20 03:25:31;;;;;;;;;;;;;;;-2.61;52.29;102037.19;3137913;28;20377;-73
2022/03/20 03:27:03;;;;;;;;;;;;;;;-2.60;52.04;102044.03;3146686;28;19946;-72
2022/03/20 03:28:35;;;;;;;;;;;;;;;-2.59;51.92;102040.69;3146303;28;19924;-73
2022/03/20 03:30:07;;;;;;;;;;;;;;;-2.58;51.98;102039.84;3142311;28;19932;-72
2022/03/20 03:31:38;;;;;;;;;;;;;;;-2.58;51.70;102042.41;3134545;28;19925;-73
2022/03/20 03:33:10;;;;;;;;;;;;;;;-2.58;51.96;102046.66;3145331;28;20317;-73
2022/03/20 03:36:30;;;;;;;;;;;;;;;-2.56;51.71;102038.25;3146495;28;19936;-73
2022/03/20 03:38:02;;;;;;;;;;;;;;;-2.57;51.70;102039.06;3147941;28;20060;-73
2022/03/20 03:39:35;;;;;;;;;;;;;;;-2.55;51.66;102041.69;3138642;28;19924;-73
2022/03/20 03:41:07;;;;;;;;;;;;;;;-2.55;51.58;102037.44;3146183;28;19928;-73
2022/03/20 03:42:37;;;;;;;;;;;;;;;-2.55;51.41;102045.09;3140574;28;20316;-73
2022/03/20 03:44:09;;;;;;;;;;;;;;;-2.53;51.56;102034.97;3137267;28;19968;-72
2022/03/20 03:45:41;;;;;;;;;;;;;;;-2.53;51.29;102035.84;3131656;28;19978;-73
2022/03/20 03:47:13;;;;;;;;;;;;;;;-2.52;51.23;102042.69;3137186;28;19930;-73
2022/03/20 03:48:45;;;;;;;;;;;;;;;-2.52;51.28;102037.56;3134939;28;19924;-73
2022/03/20 03:50:16;;;;;;;;;;;;;;;-2.50;51.33;102036.78;3137190;28;19928;-72
2022/03/20 03:51:48;;;;;;;;;;;;;;;-2.50;51.15;102041.91;3137106;28;19924;-73
2022/03/20 03:53:20;;;;;;;;;;;;;;;-2.50;51.15;102039.34;3135196;28;20049;-73
2022/03/20 03:54:53;;;;;;;;;;;;;;;-2.50;50.82;102037.66;3136405;28;19935;-73
2022/03/20 03:56:24;;;;;;;;;;;;;;;-2.68;50.81;102007.13;3131909;28;20288;-74
2022/03/20 03:57:56;;;;;;;;;;;;;;;-2.48;50.78;102045.38;3137623;28;19928;-73
2022/03/20 03:59:28;;;;;;;;;;;;;;;-2.50;50.66;102047.88;3130013;28;19928;-73
2022/03/20 04:01:00;;;;;;;;;;;;;;;-2.49;50.71;102041.94;3139081;28;19996;-73
2022/03/20 04:02:32;;;;;;;;;;;;;;;-2.49;50.74;102041.94;3137003;28;20177;-72
2022/03/20 04:04:04;;;;;;;;;;;;;;;-2.49;50.70;102044.50;3136511;28;19976;-71
2022/03/20 04:05:35;;;;;;;;;;;;;;;-2.48;50.62;102041.16;3135631;28;19925;-71
2022/03/20 04:07:07;;;;;;;;;;;;;;;-2.49;50.50;102035.97;3135921;28;19938;-72
2022/03/20 04:08:39;;;;;;;;;;;;;;;-2.49;50.62;102038.53;3136453;28;19957;-72
2022/03/20 04:10:12;;;;;;;;;;;;;;;-2.49;50.44;102036.84;3140257;28;19924;-72
2022/03/20 04:11:44;;;;;;;;;;;;;;;-2.48;50.38;102040.25;3128650;28;20020;-73
2022/03/20 04:13:16;;;;;;;;;;;;;;;-2.49;50.43;102041.06;3132771;28;20039;-72
2022/03/20 04:14:47;;;;;;;;;;;;;;;-2.48;50.25;102040.25;3134008;28;19929;-72
2022/03/20 04:16:19;;;;;;;;;;;;;;;-2.47;50.41;102042.91;3136059;28;19924;-73
2022/03/20 04:17:51;;;;;;;;;;;;;;;-2.48;50.06;102040.25;3137510;28;19924;-73
2022/03/20 04:19:22;;;;;;;;;;;;;;;-2.48;50.25;102038.59;3135673;28;19932;-72
2022/03/20 04:20:54;;;;;;;;;;;;;;;-2.47;50.04;102042.91;3135569;28;19928;-72
2022/03/20 04:22:26;;;;;;;;;;;;;;;-2.46;50.04;102039.53;3126721;28;19931;-73
2022/03/20 04:23:57;;;;;;;;;;;;;;;-2.46;50.06;102047.19;3130510;28;19939;-73
2022/03/20 04:25:30;;;;;;;;;;;;;;;-2.45;50.03;102050.63;3128077;28;19931;-72
2022/03/20 04:27:02;;;;;;;;;;;;;;;-2.45;49.85;102043.84;3128079;28;20169;-72
2022/03/20 04:28:34;;;;;;;;;;;;;;;-2.42;50.00;102048.22;3143024;28;20326;-72
2022/03/20 04:30:06;;;;;;;;;;;;;;;-2.43;49.84;102043.91;3129767;28;19932;-74
2022/03/20 04:31:38;;;;;;;;;;;;;;;-2.41;49.82;102049.94;3140613;28;19934;-73
2022/03/20 04:33:09;;;;;;;;;;;;;;;-2.40;49.82;102047.44;3127861;28;19925;-74
2022/03/20 04:34:42;;;;;;;;;;;;;;;-2.40;49.72;102049.13;3137507;28;19955;-74
2022/03/20 04:36:14;;;;;;;;;;;;;;;-2.37;49.64;102056.91;3134457;28;19932;-73
2022/03/20 04:37:45;;;;;;;;;;;;;;;-2.37;49.66;102047.59;3134228;28;20364;-74
2022/03/20 04:39:17;;;;;;;;;;;;;;;-2.52;49.65;102029.06;3136191;28;20027;-73
2022/03/20 04:40:51;;;;;;;;;;;;;;;-2.31;49.50;102055.53;3136959;28;20283;-73
2022/03/20 04:42:22;;;;;;;;;;;;;;;-2.28;49.40;102049.66;3135953;28;20270;-74
2022/03/20 04:43:54;;;;;;;;;;;;;;;-2.24;49.18;102048.13;3135698;28;20411;-74
2022/03/20 04:45:27;;;;;;;;;;;;;;;-2.39;49.17;102017.72;3136879;28;19954;-73
2022/03/20 04:46:58;;;;;;;;;;;;;;;-2.18;49.17;102048.41;3135848;28;19986;-73
2022/03/20 04:59:23;;;;;;;;;;;;;;;-1.88;48.62;102047.13;3139693;28;19925;-71
2022/03/20 05:00:55;;;;;;;;;;;;;;;-1.81;48.52;102050.78;3129103;28;19986;-71
2022/03/20 05:02:27;;;;;;;;;;;;;;;-1.77;48.55;102045.03;3136699;28;20334;-72
2022/03/20 05:04:00;;;;;;;;;;;;;;;-1.71;48.42;102046.97;3136384;28;20253;-75
2022/03/20 05:05:31;;;;;;;;;;;;;;;-1.67;48.27;102054.78;3135850;28;20152;-75
2022/03/20 05:07:03;;;;;;;;;;;;;;;-1.62;48.20;102050.75;3134516;28;19931;-75
2022/03/20 05:08:36;;;;;;;;;;;;;;;-1.56;48.07;102054.38;3136278;28;20036;-74
2022/03/20 05:13:47;;;;;;;;;;;;;;;-1.40;47.86;102049.91;3131178;28;19924;-74
2022/03/20 05:15:19;;;;;;;;;;;;;;;-1.33;47.55;102057.81;3136973;28;20346;-74
2022/03/20 05:16:52;;;;;;;;;;;;;;;-1.30;47.66;102056.28;3136368;28;20001;-74
2022/03/20 05:18:24;;;;;;;;;;;;;;;-1.25;47.38;102057.31;3135353;28;20009;-74
2022/03/20 05:19:56;;;;;;;;;;;;;;;-1.18;47.58;102061.00;3135760;28;19924;-73
2022/03/20 05:21:28;;;;;;;;;;;;;;;-1.13;47.35;102058.59;3136537;28;19924;-74
2022/03/20 05:23:00;;;;;;;;;;;;;;;-1.09;47.15;102066.47;3137415;28;20125;-74
2022/03/20 05:24:33;;;;;;;;;;;;;;;-1.04;47.10;102062.38;3135953;28;20506;-73
2022/03/20 05:26:05;;;;;;;;;;;;;;;-0.97;47.06;102063.50;3135502;28;20388;-74
2022/03/20 05:27:37;;;;;;;;;;;;;;;-0.93;47.01;102062.81;3135102;28;20011;-73
2022/03/20 05:29:10;;;;;;;;;;;;;;;-0.86;46.86;102061.34;3140666;28;20233;-74
2022/03/20 05:30:43;;;;;;;;;;;;;;;-0.79;47.03;102065.91;3136083;28;19924;-74
2022/03/20 05:32:15;;;;;;;;;;;;;;;-0.73;46.81;102064.44;3131058;28;19929;-74
2022/03/20 05:33:47;;;;;;;;;;;;;;;-0.66;46.69;102068.09;3129467;28;19925;-73
2022/03/20 05:35:19;;;;;;;;;;;;;;;-0.60;46.63;102072.56;3133200;28;20039;-73
2022/03/20 05:36:51;;;;;;;;;;;;;;;-0.54;46.56;102076.19;3138756;28;19920;-74
2022/03/20 05:38:23;;;;;;;;;;;;;;;-0.48;46.53;102066.19;3144342;28;19924;-73
2022/03/20 05:39:55;;;;;;;;;;;;;;;-0.40;46.38;102063.91;3143899;28;19924;-74
2022/03/20 05:41:47;;;;;;;;;;;;;;;-0.35;46.28;102070.09;3138564;28;19926;-74
2022/03/20 05:43:20;;;;;;;;;;;;;;;-0.28;46.27;102066.03;3140849;28;20011;-74
2022/03/20 05:44:52;;;;;;;;;;;;;;;-0.21;46.01;102069.69;3144184;28;19940;-74
2022/03/20 05:46:24;;;;;;;;;;;;;;;-0.14;45.89;102069.09;3140781;28;19921;-73
2022/03/20 05:47:56;;;;;;;;;;;;;;;-0.11;45.97;102069.22;3144704;28;20007;-73
2022/03/20 05:49:28;;;;;;;;;;;;;;;-0.07;45.54;102069.34;3146017;28;19979;-74
2022/03/20 05:51:00;;;;;;;;;;;;;;;-0.01;45.82;102072.13;3142990;28;19989;-74
2022/03/20 05:52:32;;;;;;;;;;;;;;;0.06;45.36;102074.88;3145514;28;19920;-75
2022/03/20 05:54:03;;;;;;;;;;;;;;;0.12;45.64;102072.53;3144944;28;20461;-74
2022/03/20 05:59:09;;;;;;;;;;;;;;;0.33;45.38;102077.53;3144651;28;20345;-75
2022/03/20 06:00:43;;;;;;;;;;;;;;;0.37;45.36;102081.94;3137842;28;19928;-75
2022/03/20 06:02:15;;;;;;;;;;;;;;;0.42;45.38;102078.69;3143407;28;19932;-75
2022/03/20 06:03:46;;;;;;;;;;;;;;;0.50;45.29;102076.38;3144732;28;20351;-75
2022/03/20 06:05:18;;;;;;;;;;;;;;;0.57;45.21;102077.47;3140544;28;19969;-75
2022/03/20 06:06:49;;;;;;;;;;;;;;;0.66;45.12;102078.63;3145043;28;19974;-75
2022/03/20 06:08:21;;;;;;;;;;;;;;;0.77;44.96;102078.97;3144962;28;19929;-75
2022/03/20 06:09:53;;;;;;;;;;;;;;;0.93;44.86;102079.44;3145027;28;19924;-75
2022/03/20 06:11:24;;;;;;;;;;;;;;;1.17;44.59;102081.88;3144682;28;19986;-75
2022/03/20 06:12:56;;;;;;;;;;;;;;;1.78;44.43;102079.38;3146807;28;19974;-74
2022/03/20 06:14:27;;;;;;;;;;;;;;;3.04;43.43;102081.59;3139585;28;19921;-75
2022/03/20 06:16:01;;;;;;;;;;;;;;;4.62;42.61;102067.44;3143277;28;19924;-75
2022/03/20 06:17:34;;;;;;;;;;;;;;;6.24;41.59;102063.44;3135504;28;20007;-75
2022/03/20 06:19:07;;;;;;;;;;;;;;;7.77;40.08;102066.03;3140950;28;20271;-70
2022/03/20 06:20:39;;;;;;;;;;;;;;;9.21;38.76;102058.22;3132759;28;20353;-74
2022/03/20 06:22:11;;;;;;;;;;;;;;;10.61;37.16;102058.22;3133747;28;19979;-72
2022/03/20 06:23:45;;;;;;;;;;;;;;;11.92;35.46;102057.59;3145018;28;19924;-75
2022/03/20 06:25:17;;;;;;;;;;;;;;;13.17;34.27;102058.91;3144907;28;20004;-74
2022/03/20 06:26:48;;;;;;;;;;;;;;;14.30;32.68;102059.03;3146899;28;19932;-74
2022/03/20 06:28:20;;;;;;;;;;;;;;;15.30;30.93;102061.66;3140177;28;20371;-75
2022/03/20 06:29:52;;;;;;;;;;;;;;;16.22;29.82;102058.00;3145454;28;19977;-75
2022/03/20 06:31:25;;;;;;;;;;;;;;;17.05;29.10;102056.88;3144553;28;20378;-74
2022/03/20 06:32:57;;;;;;;;;;;;;;;17.92;27.60;102054.50;3145152;28;20362;-74
2022/03/20 06:34:28;;;;;;;;;;;;;;;18.71;26.61;102052.97;3144283;28;19983;-74
2022/03/20 06:36:01;;;;;;;;;;;;;;;19.47;25.67;102055.75;3144637;28;19920;-70
2022/03/20 06:37:35;;;;;;;;;;;;;;;20.16;24.44;102055.13;3145491;28;20381;-74
2022/03/20 06:39:07;;;;;;;;;;;;;;;20.75;23.45;102059.19;3144818;28;19927;-73
2022/03/20 06:40:39;;;;;;;;;;;;;;;21.22;22.80;102047.88;3144057;28;20015;-74
2022/03/20 06:42:11;;;;;;;;;;;;;;;21.67;21.88;102051.59;3143338;28;20317;-72
2022/03/20 06:43:44;;;;;;;;;;;;;;;22.12;21.45;102057.03;3144399;28;19931;-78
2022/03/20 06:45:18;;;;;;;;;;;;;;;22.49;20.60;102053.94;3143983;28;19924;-70
2022/03/20 06:46:51;;;;;;;;;;;;;;;22.87;20.10;102053.44;3142702;28;19924;-72
2022/03/20 06:48:23;;;;;;;;;;;;;;;23.22;19.59;102050.44;3142764;28;19920;-72
2022/03/20 06:49:54;;;;;;;;;;;;;;;23.50;19.21;102048.69;3143598;28;20080;-72
2022/03/20 06:51:26;;;;;;;;;;;;;;;23.78;18.92;102045.09;3143170;28;19924;-77
2022/03/20 06:53:02;;;;;;;;;;;;;;;24.15;18.69;102048.88;3143371;28;20901;-78
2022/03/20 06:54:35;;;;;;;;;;;;;;;24.52;17.91;102047.28;3145987;28;20306;-77
2022/03/20 06:56:08;;;;;;;;;;;;;;;24.79;17.53;102045.44;3145877;28;19991;-77
2022/03/20 06:57:41;;;;;;;;;;;;;;;25.01;17.32;102043.00;3146207;28;20035;-73
2022/03/20 06:59:15;;;;;;;;;;;;;;;25.21;17.01;102041.63;3144014;28;19960;-74
2022/03/20 07:00:46;;;;;;;;;;;;;;;25.35;16.79;102046.81;3145432;28;19927;-76
2022/03/20 07:02:19;;;;;;;;;;;;;;;25.38;16.58;102045.75;3144732;28;19960;-73
2022/03/20 07:03:51;;;;;;;;;;;;;;;25.63;16.83;102045.66;3145391;28;19920;-73
2022/03/20 07:05:23;;;;;;;;;;;;;;;25.84;16.26;102042.38;3145930;28;19924;-73
2022/03/20 07:06:55;;;;;;;;;;;;;;;26.01;16.09;102038.47;3144965;28;20313;-73
2022/03/20 07:08:28;;;;;;;;;;;;;;;26.13;15.69;102037.53;3144749;28;19920;-73
2022/03/20 07:09:59;;;;;;;;;;;;;;;26.29;15.58;102042.56;3144636;28;19924;-73
2022/03/20 07:11:33;;;;;;;;;;;;;;;26.33;15.76;102044.91;3145058;28;19924;-73
2022/03/20 07:14:55;;;;;;;;;;;;;;;26.17;15.56;102039.00;3145142;28;19924;-73
2022/03/20 07:16:30;;;;;;;;;;;;;;;26.00;15.02;102042.97;3145239;28;19982;-72
2022/03/20 07:18:04;;;;;;;;;;;;;;;25.73;14.63;102037.81;3142883;28;19928;-72
2022/03/20 07:19:37;;;;;;;;;;;;;;;25.34;14.87;102038.91;3141280;28;19924;-72
2022/03/20 07:21:09;;;;;;;;;;;;;;;24.97;14.80;102044.19;3140230;28;19924;-72
2022/03/20 07:22:41;;;;;;;;;;;;;;;24.66;15.12;102040.97;3139859;28;19920;-72
2022/03/20 07:24:12;;;;;;;;;;;;;;;24.43;15.47;102034.59;3142664;28;19929;-72
2022/03/20 07:29:31;;;;;;;;;;;;;;;23.42;15.57;102033.19;3112275;28;19925;-72
2022/03/20 07:31:02;;;;;;;;;;;;;;;23.00;15.60;102031.47;3144437;28;20001;-72
2022/03/20 07:32:34;;;;;;;;;;;;;;;22.64;15.88;102030.94;3143528;28;19924;-72
2022/03/20 07:34:07;;;;;;;;;;;;;;;22.34;15.96;102022.16;3144521;28;19950;-72
2022/03/20 07:35:39;;;;;;;;;;;;;;;21.99;16.26;102025.03;3145025;28;19931;-72
2022/03/20 07:37:16;;;;;;;;;;;;;;;21.75;16.17;102024.66;3144796;28;19924;-72
2022/03/20 07:38:50;;;;;;;;;;;;;;;21.41;16.24;102025.69;3144788;28;19967;-73
2022/03/20 07:40:22;;;;;;;;;;;;;;;21.12;16.50;102026.31;3146267;28;19932;-73
2022/03/20 07:41:53;;;;;;;;;;;;;;;20.92;16.73;102034.47;3143973;28;19925;-73
2022/03/20 07:43:26;;;;;;;;;;;;;;;20.71;16.85;102025.88;3145363;28;19954;-71
2022/03/20 07:45:00;;;;;;;;;;;;;;;20.43;17.02;102029.06;3145257;28;19928;-72
2022/03/20 07:46:31;;;;;;;;;;;;;;;20.03;17.29;102022.28;3145855;28;20376;-72
2022/03/20 07:48:03;;;;;;;;;;;;;;;19.61;17.50;102029.53;3147360;28;20281;-72
2022/03/20 07:49:37;;;;;;;;;;;;;;;19.20;17.63;102031.47;3146075;28;19925;-71
2022/03/20 07:51:09;;;;;;;;;;;;;;;18.84;17.84;102033.06;3145072;28;20341;-71
2022/03/20 07:52:41;;;;;;;;;;;;;;;18.62;18.01;102024.34;3145635;28;19970;-72
2022/03/20 07:54:13;;;;;;;;;;;;;;;18.37;18.08;102022.75;3145833;28;19921;-73
2022/03/20 07:55:45;;;;;;;;;;;;;;;18.02;18.18;102029.50;3148101;28;19977;-72
2022/03/20 07:57:17;;;;;;;;;;;;;;;17.69;18.29;102026.41;3145028;28;19986;-72
2022/03/20 07:58:48;;;;;;;;;;;;;;;17.39;18.39;102023.16;3143854;28;19971;-75
2022/03/20 08:00:20;;;;;;;;;;;;;;;17.17;18.39;102021.34;3139473;28;19974;-71
2022/03/20 08:01:52;;;;;;;;;;;;;;;16.89;18.46;102028.53;3143131;28;19920;-71
2022/03/20 08:03:23;;;;;;;;;;;;;;;16.48;18.49;102025.59;3146458;28;19936;-70
2022/03/20 08:04:57;;;;;;;;;;;;;;;16.14;18.69;102022.28;3145217;28;19925;-68
2022/03/20 08:06:29;;;;;;;;;;;;;;;15.80;18.72;102014.66;3146129;28;20345;-70
2022/03/20 08:08:02;;;;;;;;;;;;;;;15.39;18.82;102029.88;3144668;28;19921;-70
2022/03/20 08:09:34;;;;;;;;;;;;;;;15.03;19.01;102021.31;3141012;28;19930;-71
2022/03/20 08:11:05;;;;;;;;;;;;;;;14.84;19.28;102010.47;3145470;28;19920;-72
2022/03/20 08:12:37;;;;;;;;;;;;;;;14.63;19.45;102016.28;3141718;28;19981;-70
2022/03/20 08:14:09;;;;;;;;;;;;;;;14.39;19.46;102018.63;3145509;28;19928;-74
2022/03/20 08:15:41;;;;;;;;;;;;;;;14.18;19.49;102011.31;3145910;28;19931;-75
2022/03/20 08:17:12;;;;;;;;;;;;;;;14.04;19.72;102011.63;3146386;28;19977;-71
2022/03/20 08:18:45;;;;;;;;;;;;;;;13.80;20.00;102008.69;3145527;28;19920;-69
2022/03/20 08:20:18;;;;;;;;;;;;;;;13.50;19.98;101983.25;3148477;28;20405;-70
2022/03/20 08:21:50;;;;;;;;;;;;;;;13.32;20.06;101997.59;3140388;28;19932;-70
2022/03/20 08:23:22;;;;;;;;;;;;;;;13.15;20.08;101997.91;3144097;28;19966;-70
2022/03/20 08:24:54;;;;;;;;;;;;;;;13.00;20.43;101999.06;3134644;28;19940;-70